Terminal Aerodrome Forecast
Issued by NWS

Home | Current Version | Previous Version | Text Only | Print | Product List | Glossary On
Versions: 1 2 3 4 5 6 7 8 9 10 11 12 13 14 15 16 17 18
000
FTUS45 KFGZ 180300 AAA
TAFPRC
TAF AMD
KPRC 180309Z 1803/1824 19004KT P6SM BKN020 OVC030
     FM180600 VRB05KT 5SM BR OVC020
     FM181000 VRB04KT 3SM BR VCSH BKN020 OVC025
      TEMPO 1810/1814 2SM -SHRA OVC018
     FM181730 23005KT P6SM SCT022 BKN045=

USA.gov is the U.S. government's official web portal to all federal, state and local government web resources and services.